createdAt,value
2022-08-19T00:01:59.057Z,67.27
2022-08-19T00:04:31.937Z,66.99
2022-08-19T00:06:59.898Z,67.02
2022-08-19T00:09:28.026Z,67.15
2022-08-19T00:11:56.612Z,67.53
2022-08-19T00:14:25.596Z,67.76
2022-08-19T00:16:55.015Z,67.86
2022-08-19T00:19:23.647Z,68.11
2022-08-19T00:21:50.765Z,68.02
2022-08-19T00:24:17.621Z,67.76
2022-08-19T00:26:46.636Z,67.76
2022-08-19T00:29:17.113Z,68.16
2022-08-19T00:31:45.465Z,67.85
2022-08-19T00:34:13.736Z,67.54
2022-08-19T00:36:42.512Z,67.34
2022-08-19T00:39:10.368Z,67.19
2022-08-19T00:41:37.316Z,67.21
2022-08-19T00:44:14.646Z,67.33
2022-08-19T00:46:46.390Z,67.33
2022-08-19T00:49:33.646Z,67.05
2022-08-19T00:52:10.319Z,67.46
2022-08-19T00:54:40.002Z,67.94
2022-08-19T00:57:15.680Z,68.07
2022-08-19T01:00:00.993Z,68.11
2022-08-19T01:02:31.394Z,67.77
2022-08-19T01:04:59.969Z,67.86
2022-08-19T01:07:26.696Z,67.55
2022-08-19T01:09:53.437Z,67.81
2022-08-19T01:12:21.125Z,67.95
2022-08-19T01:14:48.869Z,68.07
2022-08-19T01:17:17.153Z,67.83
2022-08-19T01:19:47.663Z,67.56
2022-08-19T01:22:44.970Z,68.06
2022-08-19T01:25:15.066Z,68.06
2022-08-19T01:27:45.462Z,68.57
2022-08-19T01:30:23.376Z,68.47
2022-08-19T01:32:52.071Z,67.99
2022-08-19T01:35:20.290Z,67.91
2022-08-19T01:37:50.082Z,68.43
2022-08-19T01:40:17.838Z,68.89
2022-08-19T01:42:44.410Z,68.37
2022-08-19T01:45:11.283Z,68.24
2022-08-19T01:47:38.450Z,68.10
2022-08-19T01:50:08.179Z,68.54
2022-08-19T01:52:38.054Z,69.14
2022-08-19T01:55:09.306Z,69.28
2022-08-19T01:57:37.570Z,69.12
2022-08-19T02:00:09.712Z,68.82
2022-08-19T02:02:36.452Z,68.42
2022-08-19T02:05:04.350Z,68.31
2022-08-19T02:07:30.971Z,68.37
2022-08-19T02:09:58.315Z,69.18
2022-08-19T02:12:25.162Z,69.33
2022-08-19T02:14:51.662Z,69.38
2022-08-19T02:17:19.164Z,69.34
2022-08-19T02:19:45.684Z,68.85
2022-08-19T02:22:12.311Z,68.47
2022-08-19T02:24:39.886Z,68.29
2022-08-19T02:27:06.727Z,68.32
2022-08-19T02:29:33.355Z,68.75
2022-08-19T02:32:00.156Z,69.12
2022-08-19T02:34:26.692Z,69.57
2022-08-19T02:36:53.202Z,69.44
2022-08-19T02:39:20.243Z,68.95
2022-08-19T02:41:46.841Z,68.64
2022-08-19T02:44:29.422Z,69.16
2022-08-19T02:46:57.242Z,69.60
2022-08-19T02:49:23.779Z,70.05
2022-08-19T02:51:50.305Z,70.40
2022-08-19T02:54:16.895Z,70.21
2022-08-19T02:56:44.827Z,70.29
2022-08-19T02:59:12.567Z,70.76
2022-08-19T03:01:42.256Z,70.92
2022-08-19T03:04:14.286Z,70.76
2022-08-19T03:06:44.846Z,70.77
2022-08-19T03:09:12.167Z,70.71
2022-08-19T03:11:39.710Z,70.55
2022-08-19T03:14:08.877Z,70.25
2022-08-19T03:16:44.539Z,70.19
2022-08-19T03:19:11.195Z,70.46
2022-08-19T03:21:37.808Z,70.96
2022-08-19T03:24:09.470Z,70.54
2022-08-19T03:26:45.481Z,70.24
2022-08-19T03:29:13.160Z,70.18
2022-08-19T03:31:50.920Z,70.09
2022-08-19T03:34:29.610Z,69.49
2022-08-19T03:36:59.027Z,69.36
2022-08-19T03:39:26.562Z,68.93
2022-08-19T03:42:32.952Z,69.12
2022-08-19T03:44:45.883Z,68.69
2022-08-19T03:47:17.220Z,68.51
2022-08-19T03:49:44.087Z,68.99
2022-08-19T03:52:10.735Z,69.26
2022-08-19T03:54:39.270Z,68.99
2022-08-19T03:57:06.887Z,68.92
2022-08-19T03:59:37.076Z,69.16
2022-08-19T04:02:11.171Z,69.18
2022-08-19T04:04:44.629Z,69.18
2022-08-19T04:07:17.011Z,69.08
2022-08-19T04:09:43.746Z,68.82
2022-08-19T04:12:10.397Z,68.91
2022-08-19T04:14:37.263Z,68.92
2022-08-19T04:17:07.914Z,69.66
2022-08-19T04:19:37.393Z,69.68
2022-08-19T04:22:05.511Z,70.18
2022-08-19T04:24:32.894Z,70.16
2022-08-19T04:27:02.803Z,70.09
2022-08-19T04:29:30.976Z,69.67
2022-08-19T04:31:59.603Z,69.24
2022-08-19T04:34:30.430Z,69.47
2022-08-19T04:36:59.618Z,69.52
2022-08-19T04:39:49.731Z,69.75
2022-08-19T04:42:37.266Z,70.04
2022-08-19T04:45:12.470Z,69.93
2022-08-19T04:47:48.283Z,69.88
2022-08-19T04:50:28.523Z,69.67
2022-08-19T04:52:56.786Z,69.96
2022-08-19T04:55:26.267Z,69.81
2022-08-19T04:57:52.785Z,69.56
2022-08-19T05:00:19.432Z,69.50
2022-08-19T05:02:45.931Z,69.38
2022-08-19T05:05:13.426Z,69.53
2022-08-19T05:07:41.962Z,69.79
2022-08-19T05:10:09.026Z,69.50
2022-08-19T05:12:35.624Z,69.14
2022-08-19T05:15:07.863Z,69.14
2022-08-19T05:17:38.405Z,69.64
2022-08-19T05:20:26.724Z,69.57
2022-08-19T05:22:53.439Z,69.97
2022-08-19T05:25:22.353Z,69.97
2022-08-19T05:27:49.534Z,69.68
2022-08-19T05:30:17.762Z,69.40
2022-08-19T05:32:44.528Z,69.16
2022-08-19T05:35:12.549Z,69.49
2022-08-19T05:37:41.209Z,69.46
2022-08-19T05:40:09.987Z,69.39
2022-08-19T05:42:36.627Z,69.13
2022-08-19T05:45:05.331Z,68.89
2022-08-19T05:47:32.910Z,69.27
2022-08-19T05:49:59.778Z,69.46
2022-08-19T05:52:28.023Z,69.36
2022-08-19T05:54:56.759Z,68.73
2022-08-19T05:57:25.570Z,68.54
2022-08-19T05:59:58.026Z,68.87
2022-08-19T06:02:31.566Z,68.34
2022-08-19T06:04:58.513Z,68.69
2022-08-19T06:07:25.350Z,68.54
2022-08-19T06:09:59.951Z,68.50
2022-08-19T06:12:29.578Z,68.82
2022-08-19T06:15:01.113Z,69.02
2022-08-19T06:17:31.235Z,68.75
2022-08-19T06:19:59.161Z,69.25
2022-08-19T06:22:25.699Z,69.00
2022-08-19T06:24:54.476Z,68.91
2022-08-19T06:27:22.299Z,68.55
2022-08-19T06:29:49.078Z,68.29
2022-08-19T06:32:19.471Z,68.18
2022-08-19T06:34:46.467Z,68.17
2022-08-19T06:37:14.113Z,68.15
2022-08-19T06:39:44.104Z,68.18
2022-08-19T06:42:14.150Z,68.48
2022-08-19T06:44:48.333Z,68.45
2022-08-19T06:47:23.552Z,68.54
2022-08-19T06:50:05.210Z,68.81
2022-08-19T06:52:34.995Z,68.73
2022-08-19T06:55:05.884Z,68.81
2022-08-19T06:57:34.358Z,68.68
2022-08-19T07:00:01.106Z,68.60
2022-08-19T07:02:27.702Z,68.65
2022-08-19T07:04:54.655Z,68.57
2022-08-19T07:07:23.125Z,68.49
2022-08-19T07:09:59.866Z,68.31
2022-08-19T07:12:35.754Z,68.49
2022-08-19T07:15:05.768Z,68.54
2022-08-19T07:17:34.678Z,68.41
2022-08-19T07:20:05.037Z,68.36
2022-08-19T07:22:32.589Z,68.38
2022-08-19T07:24:59.091Z,68.01
2022-08-19T07:27:25.791Z,68.09
2022-08-19T07:29:55.731Z,68.06
2022-08-19T07:32:23.885Z,68.08
2022-08-19T07:34:50.528Z,67.95
2022-08-19T07:37:18.061Z,67.65
2022-08-19T07:39:44.766Z,67.48
2022-08-19T07:42:13.487Z,67.16
2022-08-19T07:44:41.528Z,66.88
2022-08-19T07:47:08.101Z,66.61
2022-08-19T07:49:55.164Z,66.45
2022-08-19T07:52:21.706Z,66.19
2022-08-19T07:54:48.259Z,66.15
2022-08-19T07:57:14.950Z,65.95
2022-08-19T07:59:41.644Z,65.81
2022-08-19T08:02:10.130Z,65.49
2022-08-19T08:04:55.496Z,65.50
2022-08-19T08:07:40.824Z,65.62
2022-08-19T08:10:20.715Z,65.66
2022-08-19T08:12:58.353Z,65.47
2022-08-19T08:15:41.343Z,65.41
2022-08-19T08:18:08.926Z,65.23
2022-08-19T08:20:36.037Z,64.82
2022-08-19T08:23:21.211Z,64.86
2022-08-19T08:25:49.396Z,64.66
2022-08-19T08:28:19.846Z,64.32
2022-08-19T08:30:48.956Z,64.28
2022-08-19T08:33:33.378Z,63.97
2022-08-19T08:36:08.450Z,63.59
2022-08-19T08:38:42.755Z,62.83
2022-08-19T08:41:22.911Z,62.23
2022-08-19T08:43:53.814Z,61.99
2022-08-19T08:46:43.571Z,61.76
2022-08-19T08:50:17.045Z,61.23
2022-08-19T08:52:52.058Z,60.81
2022-08-19T08:55:24.493Z,60.21
2022-08-19T08:58:02.816Z,58.89
2022-08-19T09:00:35.387Z,58.59
2022-08-19T09:03:07.009Z,58.25
2022-08-19T09:06:04.712Z,56.50
2022-08-19T09:08:51.104Z,56.02
2022-08-19T09:11:44.684Z,55.00
2022-08-19T09:14:52.036Z,52.97
2022-08-19T09:17:34.566Z,54.22
2022-08-19T09:20:19.967Z,53.58
2022-08-19T09:22:47.555Z,53.84
2022-08-19T09:25:26.666Z,53.31
2022-08-19T09:28:02.843Z,53.56
2022-08-19T09:30:35.078Z,53.05
2022-08-19T09:33:01.784Z,52.61
2022-08-19T09:35:30.921Z,51.86
2022-08-19T09:38:00.375Z,51.53
2022-08-19T09:40:35.408Z,51.43
2022-08-19T09:43:09.964Z,51.32
2022-08-19T09:45:36.783Z,51.32
2022-08-19T09:48:03.761Z,51.33
2022-08-19T09:50:39.272Z,50.59
2022-08-19T09:53:19.512Z,50.75
2022-08-19T09:55:46.133Z,49.95
2022-08-19T09:58:12.817Z,50.12
2022-08-19T10:00:39.794Z,49.83
2022-08-19T10:03:07.161Z,49.57
2022-08-19T10:05:50.186Z,49.99
2022-08-19T10:08:20.887Z,49.67
2022-08-19T10:10:49.128Z,49.08
2022-08-19T10:13:26.950Z,48.48
2022-08-19T10:15:57.119Z,48.62
2022-08-19T10:18:25.352Z,48.68
2022-08-19T10:20:54.442Z,48.37
2022-08-19T10:23:22.230Z,48.04
2022-08-19T10:25:50.519Z,46.60
2022-08-19T10:28:19.217Z,47.29
2022-08-19T10:30:47.438Z,47.61
2022-08-19T10:33:14.864Z,46.89
2022-08-19T10:35:42.697Z,47.64
2022-08-19T10:38:31.455Z,47.75
2022-08-19T10:41:07.440Z,48.17
2022-08-19T10:43:38.085Z,47.99
2022-08-19T10:46:14.140Z,47.67
2022-08-19T10:48:45.101Z,47.37
2022-08-19T10:51:31.694Z,47.60
2022-08-19T10:53:59.266Z,46.72
2022-08-19T10:56:46.343Z,47.75
2022-08-19T10:59:14.775Z,47.08
2022-08-19T11:01:45.350Z,46.16
2022-08-19T11:04:14.643Z,45.25
2022-08-19T11:06:44.171Z,43.83
2022-08-19T11:09:12.168Z,44.76
2022-08-19T11:11:41.649Z,45.23
2022-08-19T11:14:15.319Z,45.09
2022-08-19T11:16:43.427Z,44.78
2022-08-19T11:19:12.772Z,44.67
2022-08-19T11:21:43.150Z,44.17
2022-08-19T11:24:15.733Z,43.98
2022-08-19T11:26:44.998Z,43.23
2022-08-19T11:29:14.203Z,43.02
2022-08-19T11:31:45.080Z,42.85
2022-08-19T11:34:17.908Z,42.35
2022-08-19T11:36:47.037Z,42.65
2022-08-19T11:39:17.405Z,43.03
2022-08-19T11:41:43.918Z,42.69
2022-08-19T11:44:11.072Z,42.25
2022-08-19T11:46:39.033Z,42.70
2022-08-19T11:49:13.234Z,40.61
2022-08-19T11:51:43.729Z,41.61
2022-08-19T11:54:12.337Z,41.55
2022-08-19T11:56:40.011Z,41.64
2022-08-19T11:59:12.765Z,40.88
2022-08-19T12:01:43.385Z,40.66
2022-08-19T12:04:10.714Z,40.07
2022-08-19T12:06:40.418Z,39.82
2022-08-19T12:09:10.490Z,39.42
2022-08-19T12:11:39.422Z,39.45
2022-08-19T12:14:06.006Z,39.23
2022-08-19T12:16:33.548Z,39.38
2022-08-19T12:19:04.757Z,39.70
2022-08-19T12:21:34.154Z,39.48
2022-08-19T12:24:02.867Z,39.54
2022-08-19T12:26:32.245Z,39.37
2022-08-19T12:29:00.409Z,40.11
2022-08-19T12:31:29.640Z,39.70
2022-08-19T12:33:56.728Z,39.84
2022-08-19T12:36:24.168Z,39.48
2022-08-19T12:38:50.771Z,38.66
2022-08-19T12:41:19.289Z,38.84
2022-08-19T12:43:46.580Z,38.93
2022-08-19T12:46:13.583Z,38.00
2022-08-19T12:48:43.508Z,37.46
2022-08-19T12:51:20.768Z,37.22
2022-08-19T12:53:48.618Z,37.55
2022-08-19T12:56:15.630Z,37.78
2022-08-19T12:58:48.667Z,37.59
2022-08-19T13:01:22.509Z,37.53
2022-08-19T13:03:51.167Z,37.51
2022-08-19T13:06:20.167Z,36.97
2022-08-19T13:08:47.215Z,37.08
2022-08-19T13:11:18.369Z,37.49
2022-08-19T13:13:49.380Z,38.18
2022-08-19T13:16:16.684Z,38.72
2022-08-19T13:18:51.238Z,39.43
2022-08-19T13:21:17.824Z,40.07
2022-08-19T13:23:47.923Z,40.23
2022-08-19T13:26:15.159Z,40.02
2022-08-19T13:29:01.230Z,39.76
2022-08-19T13:31:51.342Z,38.96
2022-08-19T13:34:26.014Z,39.04
2022-08-19T13:36:58.347Z,39.35
2022-08-19T13:39:25.091Z,39.35
2022-08-19T13:41:51.681Z,39.25
2022-08-19T13:44:20.936Z,39.61
2022-08-19T13:46:54.103Z,39.49
2022-08-19T13:49:21.317Z,39.28
2022-08-19T13:51:47.855Z,39.13
2022-08-19T13:54:14.462Z,38.92
2022-08-19T13:56:46.519Z,39.06
2022-08-19T13:59:13.662Z,38.31
2022-08-19T14:01:42.496Z,38.34
2022-08-19T14:04:09.747Z,37.62
2022-08-19T14:06:36.684Z,38.05
2022-08-19T14:09:04.118Z,37.99
2022-08-19T14:11:31.266Z,38.08
2022-08-19T14:13:57.867Z,37.49
2022-08-19T14:16:25.629Z,37.59
2022-08-19T14:18:52.461Z,37.43
2022-08-19T14:21:24.598Z,36.80
2022-08-19T14:23:52.835Z,36.96
2022-08-19T14:26:21.554Z,36.30
2022-08-19T14:28:48.558Z,36.89
2022-08-19T14:31:19.793Z,36.82
2022-08-19T14:33:48.644Z,36.84
2022-08-19T14:36:15.767Z,37.32
2022-08-19T14:38:43.334Z,37.33
2022-08-19T14:41:18.276Z,37.47
2022-08-19T14:43:50.731Z,37.11
2022-08-19T14:46:22.723Z,37.09
2022-08-19T14:48:51.894Z,36.70
2022-08-19T14:51:24.282Z,36.18
2022-08-19T14:53:51.599Z,35.95
2022-08-19T14:56:28.556Z,35.65
2022-08-19T14:58:56.187Z,36.00
2022-08-19T15:01:24.112Z,36.37
2022-08-19T15:03:55.724Z,36.28
2022-08-19T15:06:25.171Z,36.16
2022-08-19T15:08:52.655Z,36.19
2022-08-19T15:11:24.423Z,36.23
2022-08-19T15:13:51.678Z,36.53
2022-08-19T15:16:19.489Z,36.94
2022-08-19T15:18:50.621Z,37.04
2022-08-19T15:21:26.731Z,36.84
2022-08-19T15:23:57.528Z,36.97
2022-08-19T15:26:26.083Z,37.35
2022-08-19T15:28:53.007Z,37.00
2022-08-19T15:31:27.930Z,37.41
2022-08-19T15:33:58.541Z,37.70
2022-08-19T15:36:26.930Z,37.66
2022-08-19T15:38:53.735Z,38.01
2022-08-19T15:41:29.284Z,37.80
2022-08-19T15:44:10.490Z,37.88
2022-08-19T15:46:40.719Z,38.13
2022-08-19T15:49:07.907Z,38.17
2022-08-19T15:51:36.355Z,37.89
2022-08-19T15:54:07.363Z,37.96
2022-08-19T15:57:06.639Z,38.14
2022-08-19T15:59:54.500Z,38.27
2022-08-19T16:02:46.221Z,38.24
2022-08-19T16:05:37.613Z,38.51
2022-08-19T16:08:05.777Z,38.34
2022-08-19T16:10:32.435Z,37.64
2022-08-19T16:12:59.146Z,37.66
2022-08-19T16:15:28.959Z,37.88
2022-08-19T16:17:57.995Z,37.97
2022-08-19T16:20:27.275Z,37.63
2022-08-19T16:22:56.373Z,37.52
2022-08-19T16:25:27.418Z,37.86
2022-08-19T16:28:07.741Z,38.02
2022-08-19T16:30:39.851Z,37.91
2022-08-19T16:33:08.751Z,37.80
2022-08-19T16:35:35.853Z,38.13
2022-08-19T16:38:02.638Z,38.20
2022-08-19T16:40:29.645Z,38.43
2022-08-19T16:42:56.428Z,38.65
2022-08-19T16:45:23.285Z,38.63
2022-08-19T16:47:50.447Z,38.90
2022-08-19T16:50:22.355Z,39.35
2022-08-19T16:53:00.077Z,39.33
2022-08-19T16:55:28.249Z,39.45
2022-08-19T16:57:54.835Z,39.67
2022-08-19T17:00:21.511Z,39.81
2022-08-19T17:02:48.059Z,39.65
2022-08-19T17:05:14.932Z,39.81
2022-08-19T17:07:41.434Z,39.86
2022-08-19T17:10:09.079Z,40.08
2022-08-19T17:12:37.425Z,39.91
2022-08-19T17:15:08.229Z,39.95
2022-08-19T17:17:35.748Z,39.96
2022-08-19T17:20:03.249Z,39.71
2022-08-19T17:22:29.877Z,39.87
2022-08-19T17:24:58.084Z,39.56
2022-08-19T17:27:31.981Z,39.78
2022-08-19T17:30:00.183Z,39.71
2022-08-19T17:32:27.238Z,39.61
2022-08-19T17:34:54.232Z,39.59
2022-08-19T17:37:21.087Z,39.45
2022-08-19T17:39:47.674Z,39.48
2022-08-19T17:42:14.481Z,39.68
2022-08-19T17:44:40.987Z,39.74
2022-08-19T17:47:07.870Z,39.61
2022-08-19T17:49:34.698Z,39.78
2022-08-19T17:52:01.215Z,40.33
2022-08-19T17:54:28.260Z,40.14
2022-08-19T17:57:01.174Z,40.21
2022-08-19T17:59:30.051Z,40.09
2022-08-19T18:01:57.845Z,40.21
2022-08-19T18:04:26.264Z,40.24
2022-08-19T18:06:55.433Z,40.40
2022-08-19T18:09:28.583Z,40.63
2022-08-19T18:12:07.331Z,40.75
2022-08-19T18:14:37.766Z,40.60
2022-08-19T18:17:14.126Z,40.35
2022-08-19T18:19:44.068Z,40.78
2022-08-19T18:22:37.740Z,40.92
2022-08-19T18:25:26.731Z,41.14
2022-08-19T18:27:59.605Z,40.97
2022-08-19T18:30:34.373Z,41.49
2022-08-19T18:33:14.151Z,41.62
2022-08-19T18:35:48.575Z,41.57
2022-08-19T18:38:36.225Z,41.82
2022-08-19T18:41:23.064Z,42.53
2022-08-19T18:44:08.894Z,42.57
2022-08-19T18:46:54.551Z,42.94
2022-08-19T18:49:29.178Z,42.69
2022-08-19T18:51:58.088Z,42.77
2022-08-19T18:54:26.621Z,42.83
2022-08-19T18:56:55.647Z,43.12
2022-08-19T18:59:28.836Z,42.96
2022-08-19T19:01:58.280Z,43.39
2022-08-19T19:04:35.143Z,43.68
2022-08-19T19:07:01.708Z,43.83
2022-08-19T19:09:28.632Z,43.86
2022-08-19T19:12:01.782Z,43.97
2022-08-19T19:14:48.757Z,43.98
2022-08-19T19:17:16.126Z,43.96
2022-08-19T19:19:43.882Z,44.10
2022-08-19T19:22:21.207Z,44.19
2022-08-19T19:24:48.695Z,44.50
2022-08-19T19:27:20.167Z,44.54
2022-08-19T19:29:52.030Z,44.89
2022-08-19T19:32:29.388Z,45.06
2022-08-19T19:34:56.428Z,45.01
2022-08-19T19:37:23.072Z,44.91
2022-08-19T19:39:49.587Z,44.91
2022-08-19T19:42:21.386Z,44.91
2022-08-19T19:44:54.463Z,44.87
2022-08-19T19:47:28.330Z,45.10
2022-08-19T19:52:48.221Z,45.42
2022-08-19T19:55:19.994Z,45.46
2022-08-19T19:57:50.222Z,45.66
2022-08-19T20:00:18.911Z,45.72
2022-08-19T20:02:49.757Z,45.71
2022-08-19T20:05:17.316Z,45.96
2022-08-19T20:08:02.500Z,46.12
2022-08-19T20:10:29.619Z,46.16
2022-08-19T20:12:56.891Z,46.33
2022-08-19T20:15:24.077Z,46.43
2022-08-19T20:17:50.968Z,46.45
2022-08-19T20:20:19.185Z,46.66
2022-08-19T20:22:47.467Z,46.74
2022-08-19T20:25:18.861Z,46.75
2022-08-19T20:27:49.641Z,47.09
2022-08-19T20:30:20.516Z,47.15
2022-08-19T20:32:49.442Z,47.57
2022-08-19T20:35:19.795Z,47.96
2022-08-19T20:37:46.595Z,48.08
2022-08-19T20:40:14.305Z,48.06
2022-08-19T20:42:43.848Z,48.10
2022-08-19T20:45:29.470Z,48.10
2022-08-19T20:48:02.546Z,48.45
2022-08-19T20:50:30.112Z,48.50
2022-08-19T20:52:57.831Z,48.53
2022-08-19T20:55:26.102Z,48.79
2022-08-19T20:57:52.746Z,48.96
2022-08-19T21:00:19.739Z,48.99
2022-08-19T21:02:46.945Z,49.20
2022-08-19T21:05:13.746Z,49.41
2022-08-19T21:07:40.326Z,49.47
2022-08-19T21:10:07.591Z,49.58
2022-08-19T21:12:34.339Z,49.85
2022-08-19T21:15:00.847Z,49.90
2022-08-19T21:17:27.373Z,50.14
2022-08-19T21:19:53.947Z,50.48
2022-08-19T21:22:20.443Z,50.79
2022-08-19T21:24:46.974Z,50.83
2022-08-19T21:27:13.670Z,50.88
2022-08-19T21:29:41.992Z,51.23
2022-08-19T21:32:11.031Z,51.39
2022-08-19T21:34:43.954Z,51.30
2022-08-19T21:37:18.982Z,51.58
2022-08-19T21:39:52.087Z,51.79
2022-08-19T21:42:18.688Z,51.92
2022-08-19T21:44:45.960Z,51.95
2022-08-19T21:47:13.024Z,51.86
2022-08-19T21:49:39.934Z,52.05
2022-08-19T21:52:08.102Z,52.07
2022-08-19T21:54:38.109Z,52.25
2022-08-19T21:57:10.132Z,52.34
2022-08-19T21:59:43.621Z,52.44
2022-08-19T22:02:20.472Z,52.44
2022-08-19T22:04:48.703Z,52.56
2022-08-19T22:07:15.634Z,52.55
2022-08-19T22:09:45.235Z,52.90
2022-08-19T22:12:24.639Z,53.23
2022-08-19T22:14:53.019Z,53.03
2022-08-19T22:17:21.216Z,53.21
2022-08-19T22:19:48.978Z,53.24
2022-08-19T22:22:30.024Z,53.36
2022-08-19T22:25:12.326Z,53.34
2022-08-19T22:27:39.226Z,53.56
2022-08-19T22:30:13.990Z,54.11
2022-08-19T22:32:50.500Z,54.04
2022-08-19T22:35:25.205Z,54.01
2022-08-19T22:37:51.939Z,54.13
2022-08-19T22:40:20.293Z,54.22
2022-08-19T22:42:48.830Z,54.27
2022-08-19T22:45:17.515Z,54.41
2022-08-19T22:47:45.282Z,54.68
2022-08-19T22:50:13.756Z,54.84
2022-08-19T22:52:51.981Z,54.95
2022-08-19T22:55:19.269Z,55.26
2022-08-19T22:57:45.785Z,55.42
2022-08-19T23:00:13.565Z,55.32
2022-08-19T23:02:52.296Z,55.56
2022-08-19T23:05:22.393Z,55.57
2022-08-19T23:07:52.677Z,55.92
2022-08-19T23:10:27.423Z,55.89
2022-08-19T23:12:57.607Z,55.98
2022-08-19T23:15:31.045Z,56.62
2022-08-19T23:18:01.602Z,56.54
2022-08-19T23:20:34.837Z,56.79
2022-08-19T23:23:09.270Z,56.53
2022-08-19T23:25:37.862Z,56.54
2022-08-19T23:28:25.071Z,56.97
2022-08-19T23:30:53.339Z,56.99
2022-08-19T23:33:46.541Z,57.09
2022-08-19T23:36:17.661Z,57.21
2022-08-19T23:38:47.699Z,57.19
2022-08-19T23:41:17.036Z,57.43
2022-08-19T23:43:44.758Z,57.47
2022-08-19T23:46:14.979Z,57.73
2022-08-19T23:48:54.607Z,58.30
2022-08-19T23:51:23.643Z,58.23
2022-08-19T23:53:50.169Z,59.62
2022-08-19T23:56:16.743Z,59.41
2022-08-19T23:58:43.358Z,60.22
